Weston, Florida
Current Conditions -  °F | °C
As of 11:53 PM on Monday 20 Oct 2014 (Local Time) from KHWO Reporting Station
Broken Clouds Broken Clouds  
Wind Chill: 75°   Ceiling: 6500
Heat Index: 75°   Visibility: 10mi
Dew Point: 69°   Wind: 0mph
Humidity: 82%   Direction: NA
Pressure: 29.99"   Gusts: NA
Location:  26.11°N, 80.41°W
Report Text: KHWO 210353Z AUTO 00000KT 10SM FEW041 FEW050 BKN065 24/21 A2999 RMK AO2 SLP156 T02390206
Loading
Personal Weather Stations






























Interactive Weather Map
Tropical Storm Tracking
New forecast layout! Learn more

10-Day Weather Forecast

Advertisements
Track Severe Weather on mobile